Time;durP1;ratioP1;P1;durP2;ratioP2;P2;SDS_P1;SDS_P2;PMS_P1;PMS_P2;Temp;Humidity;BMP_temperature;BMP_pressure;BME280_temperature;BME280_humidity;BME280_pressure;Samples;Min_cycle;Max_cycle;Signal;HPM_P1;HPM_P2
2023/06/25 00:00:38;;;;;;;;;;;;;;;18.46;100.00;96102.59;10513850;28;1929;-68
2023/06/25 00:05:41;;;;;;;;;;;;;;;18.35;100.00;96097.41;10497995;28;2105;-68
2023/06/25 00:10:43;;;;;;;;;;;;;;;18.30;100.00;96102.19;10494993;28;2039;-69
2023/06/25 00:15:45;;;;;;;;;;;;;;;18.17;100.00;96097.66;10501183;28;2054;-68
2023/06/25 00:20:48;;;;;;;;;;;;;;;18.10;100.00;96087.22;10506232;28;1995;-68
2023/06/25 00:25:51;;;;;;;;;;;;;;;18.11;100.00;96083.41;10504133;28;2188;-68
2023/06/25 00:30:53;;;;;;;;;;;;;;;18.07;100.00;96083.25;10502071;28;2102;-68
2023/06/25 00:35:56;;;;;;;;;;;;;;;17.98;100.00;96078.88;10506630;28;2037;-69
2023/06/25 00:40:58;;;;;;;;;;;;;;;17.84;100.00;96078.97;10501860;28;2039;-68
2023/06/25 00:46:01;;;;;;;;;;;;;;;17.79;100.00;96071.72;10508261;28;5063;-69
2023/06/25 00:51:04;;;;;;;;;;;;;;;17.72;100.00;96060.50;10519104;28;1936;-69
2023/06/25 00:56:07;;;;;;;;;;;;;;;17.68;100.00;96058.69;10508151;28;1964;-69
2023/06/25 01:01:12;;;;;;;;;;;;;;;17.71;100.00;96058.91;10498555;28;1921;-68
2023/06/25 01:06:15;;;;;;;;;;;;;;;17.50;100.00;96060.53;10501141;28;1907;-69
2023/06/25 01:11:17;;;;;;;;;;;;;;;17.69;100.00;96054.88;10498967;28;1875;-69
2023/06/25 01:16:20;;;;;;;;;;;;;;;17.76;100.00;96047.91;10503662;28;2034;-68
2023/06/25 01:21:26;;;;;;;;;;;;;;;17.85;100.00;96049.84;10503537;28;2310;-69
2023/06/25 01:26:29;;;;;;;;;;;;;;;17.73;100.00;96040.34;10511738;28;2088;-69
2023/06/25 01:31:31;;;;;;;;;;;;;;;17.55;100.00;96033.97;10510011;28;1944;-68
2023/06/25 01:36:39;;;;;;;;;;;;;;;17.28;100.00;96034.94;10516404;28;1961;-68
2023/06/25 01:41:42;;;;;;;;;;;;;;;17.19;100.00;96031.38;10495298;28;4782;-67
2023/06/25 01:46:45;;;;;;;;;;;;;;;17.37;100.00;96031.47;10509463;28;2045;-68
2023/06/25 01:51:47;;;;;;;;;;;;;;;17.32;100.00;96028.91;10503224;28;1906;-67
2023/06/25 01:56:50;;;;;;;;;;;;;;;17.31;100.00;96022.69;10495926;28;1865;-67
2023/06/25 02:01:53;;;;;;;;;;;;;;;17.16;100.00;96021.13;10505677;28;1941;-68
2023/06/25 02:06:56;;;;;;;;;;;;;;;17.08;100.00;96018.34;10502210;28;2176;-68
2023/06/25 02:11:58;;;;;;;;;;;;;;;16.95;100.00;96011.88;10500465;28;1911;-67
2023/06/25 02:17:01;;;;;;;;;;;;;;;16.84;100.00;96013.22;10513433;28;2355;-69
2023/06/25 02:22:04;;;;;;;;;;;;;;;16.78;100.00;96004.38;10515075;28;1961;-67
2023/06/25 02:27:07;;;;;;;;;;;;;;;16.37;100.00;96009.91;10504006;28;1866;-66
2023/06/25 02:32:09;;;;;;;;;;;;;;;15.93;100.00;96017.59;10503526;28;2054;-67
2023/06/25 02:37:12;;;;;;;;;;;;;;;15.75;100.00;96015.75;10502801;28;1996;-67
2023/06/25 02:42:15;;;;;;;;;;;;;;;15.47;100.00;96016.81;10493283;28;4758;-67
2023/06/25 02:47:17;;;;;;;;;;;;;;;15.12;100.00;96019.81;10494476;28;2145;-67
2023/06/25 02:52:20;;;;;;;;;;;;;;;15.40;100.00;96025.34;10496511;28;1952;-68
2023/06/25 02:57:23;;;;;;;;;;;;;;;15.85;100.00;96022.91;10507055;28;1972;-67
2023/06/25 03:02:25;;;;;;;;;;;;;;;15.85;100.00;96009.34;10500348;28;1938;-67
2023/06/25 03:07:28;;;;;;;;;;;;;;;15.97;100.00;96016.97;10496492;28;1928;-68
2023/06/25 03:12:30;;;;;;;;;;;;;;;16.05;100.00;96003.53;10502857;28;1902;-68
2023/06/25 03:17:33;;;;;;;;;;;;;;;16.07;100.00;95998.59;10505713;28;1970;-67
2023/06/25 03:22:35;;;;;;;;;;;;;;;16.26;100.00;96003.91;10510375;28;1926;-67
2023/06/25 03:27:38;;;;;;;;;;;;;;;16.10;100.00;96000.72;10499583;28;1923;-68
2023/06/25 03:32:41;;;;;;;;;;;;;;;16.38;100.00;95995.22;10507269;28;1983;-67
2023/06/25 03:37:44;;;;;;;;;;;;;;;16.37;100.00;95999.06;10502827;28;2058;-67
2023/06/25 03:42:47;;;;;;;;;;;;;;;16.42;100.00;95998.94;10503370;28;4710;-68
2023/06/25 03:47:50;;;;;;;;;;;;;;;16.45;100.00;95998.31;10506929;28;1886;-69
2023/06/25 03:52:52;;;;;;;;;;;;;;;16.47;100.00;95998.81;10504602;28;2086;-68
2023/06/25 03:57:55;;;;;;;;;;;;;;;16.62;100.00;95987.63;10509286;28;2121;-67
2023/06/25 04:02:58;;;;;;;;;;;;;;;16.90;100.00;95990.25;10510331;28;2074;-68
2023/06/25 04:08:01;;;;;;;;;;;;;;;16.99;100.00;95980.28;10503617;28;1899;-67
2023/06/25 04:13:03;;;;;;;;;;;;;;;17.24;100.00;95978.81;10501834;28;2350;-68
2023/06/25 04:18:06;;;;;;;;;;;;;;;17.44;100.00;95978.31;10509131;28;2003;-68
2023/06/25 04:23:08;;;;;;;;;;;;;;;17.80;100.00;95974.66;10509624;28;1914;-67
2023/06/25 04:28:11;;;;;;;;;;;;;;;18.06;100.00;95983.69;10500259;28;1994;-67
2023/06/25 04:33:13;;;;;;;;;;;;;;;18.12;100.00;95980.81;10503626;28;1938;-69
2023/06/25 04:38:15;;;;;;;;;;;;;;;18.44;100.00;95977.66;10495671;28;2011;-69
2023/06/25 04:43:18;;;;;;;;;;;;;;;18.59;100.00;95982.66;10501341;28;4682;-68
2023/06/25 04:48:20;;;;;;;;;;;;;;;18.93;100.00;95977.56;10505001;28;2046;-66
2023/06/25 04:53:23;;;;;;;;;;;;;;;18.99;100.00;95977.06;10497308;28;2168;-67
2023/06/25 04:58:26;;;;;;;;;;;;;;;19.17;100.00;95966.97;10492385;28;1992;-70
2023/06/25 05:03:28;;;;;;;;;;;;;;;19.34;100.00;95963.38;10498021;28;2146;-68
2023/06/25 05:08:30;;;;;;;;;;;;;;;19.52;100.00;95977.75;10491806;28;2480;-69
2023/06/25 05:13:35;;;;;;;;;;;;;;;19.57;100.00;95980.31;10500588;28;2114;-68
2023/06/25 05:18:37;;;;;;;;;;;;;;;19.98;100.00;95980.50;10503883;28;2039;-69
2023/06/25 05:23:40;;;;;;;;;;;;;;;19.93;100.00;95977.16;10507173;28;2101;-68
2023/06/25 05:28:43;;;;;;;;;;;;;;;20.24;100.00;95976.84;10500485;28;2212;-68
2023/06/25 05:33:45;;;;;;;;;;;;;;;20.13;100.00;95981.06;10502773;28;1945;-68
2023/06/25 05:38:48;;;;;;;;;;;;;;;20.31;100.00;95977.13;10505356;28;2029;-68
2023/06/25 05:43:53;;;;;;;;;;;;;;;20.43;100.00;95971.75;10505822;28;4757;-68
2023/06/25 05:48:55;;;;;;;;;;;;;;;20.74;100.00;95970.56;10501484;28;1910;-68
2023/06/25 05:53:57;;;;;;;;;;;;;;;20.70;100.00;95975.09;10497618;28;2090;-69
2023/06/25 05:59:00;;;;;;;;;;;;;;;20.51;100.00;95975.56;10499627;28;1934;-68
2023/06/25 06:04:02;;;;;;;;;;;;;;;20.51;100.00;95975.56;10500270;28;2344;-68
2023/06/25 06:09:05;;;;;;;;;;;;;;;20.96;100.00;95978.41;10492802;28;2161;-68
2023/06/25 06:14:08;;;;;;;;;;;;;;;21.25;100.00;95971.25;10499991;28;2013;-69
2023/06/25 06:19:10;;;;;;;;;;;;;;;21.52;98.64;95975.34;10502280;28;1999;-68
2023/06/25 06:24:13;;;;;;;;;;;;;;;21.44;98.68;95968.81;10497602;28;2008;-68
2023/06/25 06:29:17;;;;;;;;;;;;;;;21.77;97.82;95959.75;10499260;28;2063;-69
2023/06/25 06:34:20;;;;;;;;;;;;;;;22.25;93.70;95964.44;10494505;28;2134;-69
2023/06/25 06:39:23;;;;;;;;;;;;;;;22.48;91.69;95953.81;10499278;28;2214;-69
2023/06/25 06:44:26;;;;;;;;;;;;;;;22.80;92.49;95953.97;10492453;28;4713;-69
2023/06/25 06:49:28;;;;;;;;;;;;;;;22.99;90.13;95962.38;10500745;28;1944;-68
2023/06/25 06:54:30;;;;;;;;;;;;;;;22.97;87.34;95961.09;10494151;28;1994;-68
2023/06/25 06:59:33;;;;;;;;;;;;;;;22.97;85.14;95947.41;10497684;28;2039;-67
2023/06/25 07:04:35;;;;;;;;;;;;;;;23.03;90.18;95938.59;10501952;28;2069;-68
2023/06/25 07:09:37;;;;;;;;;;;;;;;22.92;90.72;95945.72;10497418;28;2104;-68
2023/06/25 07:14:41;;;;;;;;;;;;;;;23.26;87.59;95941.56;10499955;28;2015;-68
2023/06/25 07:19:44;;;;;;;;;;;;;;;23.09;89.71;95930.91;10501777;28;1900;-69
2023/06/25 07:24:47;;;;;;;;;;;;;;;23.48;86.28;95934.72;10498330;28;2045;-69
2023/06/25 07:29:50;;;;;;;;;;;;;;;23.53;83.30;95937.16;10490428;28;1899;-67
2023/06/25 07:34:52;;;;;;;;;;;;;;;23.37;84.42;95933.63;10512351;28;2188;-67
2023/06/25 07:39:54;;;;;;;;;;;;;;;23.73;86.11;95927.94;10504046;28;1947;-68
2023/06/25 07:44:57;;;;;;;;;;;;;;;23.35;84.69;95933.16;10501809;28;4814;-68
2023/06/25 07:49:59;;;;;;;;;;;;;;;23.10;87.40;95927.84;10506671;28;1933;-69
2023/06/25 07:55:02;;;;;;;;;;;;;;;23.67;87.67;95926.59;10517633;28;2484;-69
2023/06/25 08:00:04;;;;;;;;;;;;;;;23.85;84.59;95929.78;10502960;28;2011;-68
2023/06/25 08:05:07;;;;;;;;;;;;;;;24.16;83.42;95923.44;10511007;28;2134;-68
2023/06/25 08:10:10;;;;;;;;;;;;;;;24.32;77.27;95914.41;10512341;28;1918;-69
2023/06/25 08:15:13;;;;;;;;;;;;;;;24.05;78.01;95905.94;10499440;28;1974;-68
2023/06/25 08:20:15;;;;;;;;;;;;;;;23.79;79.04;95913.94;10505073;28;2074;-68
2023/06/25 08:25:18;;;;;;;;;;;;;;;23.77;78.57;95902.50;10511455;28;1931;-68
2023/06/25 08:30:20;;;;;;;;;;;;;;;23.94;76.10;95902.94;10501935;28;1960;-68
2023/06/25 08:35:23;;;;;;;;;;;;;;;24.41;74.13;95904.81;10495474;28;1946;-68
2023/06/25 08:40:25;;;;;;;;;;;;;;;24.44;75.90;95903.31;10496622;28;2049;-68
2023/06/25 08:45:28;;;;;;;;;;;;;;;24.13;72.88;95910.44;10508541;28;4671;-68
2023/06/25 08:50:31;;;;;;;;;;;;;;;24.90;72.23;95904.25;10500804;28;2319;-68
2023/06/25 08:55:33;;;;;;;;;;;;;;;24.51;67.46;95897.97;10495238;28;2213;-68
2023/06/25 09:00:36;;;;;;;;;;;;;;;24.32;65.48;95909.69;10508897;28;1996;-68
2023/06/25 09:05:39;;;;;;;;;;;;;;;24.86;63.03;95900.63;10509771;28;1961;-68
2023/06/25 09:10:42;;;;;;;;;;;;;;;25.06;58.16;95890.44;10501561;28;1982;-68
2023/06/25 09:15:44;;;;;;;;;;;;;;;24.92;59.65;95887.41;10508322;28;2166;-68
2023/06/25 09:20:47;;;;;;;;;;;;;;;25.60;57.51;95895.75;10502623;28;1902;-67
2023/06/25 09:25:55;;;;;;;;;;;;;;;25.33;55.28;95881.16;10513013;28;2062;-69
2023/06/25 09:30:58;;;;;;;;;;;;;;;25.78;54.78;95882.31;10506030;28;1922;-68
2023/06/25 09:36:01;;;;;;;;;;;;;;;25.55;55.22;95887.00;10507080;28;1939;-68
2023/06/25 09:41:12;;;;;;;;;;;;;;;25.33;53.42;95880.34;10502900;28;4754;-68
2023/06/25 09:46:15;;;;;;;;;;;;;;;25.41;55.23;95878.50;10508347;28;1999;-68
2023/06/25 09:51:18;;;;;;;;;;;;;;;25.14;51.70;95875.69;10502165;28;2668;-69
2023/06/25 09:56:21;;;;;;;;;;;;;;;24.95;54.43;95881.19;10502010;28;1938;-69
2023/06/25 10:01:23;;;;;;;;;;;;;;;24.78;55.45;95883.22;10513641;28;1910;-69
2023/06/25 10:06:26;;;;;;;;;;;;;;;25.07;52.75;95872.81;10502985;28;1925;-69
2023/06/25 10:11:29;;;;;;;;;;;;;;;25.30;51.58;95854.34;10503256;28;2067;-69
2023/06/25 10:16:31;;;;;;;;;;;;;;;25.12;53.08;95857.94;10505684;28;1887;-68
2023/06/25 10:21:41;;;;;;;;;;;;;;;25.07;58.86;95859.06;10496160;28;1965;-69
2023/06/25 10:26:44;;;;;;;;;;;;;;;25.29;59.09;95852.75;10509331;28;2076;-69
2023/06/25 10:31:47;;;;;;;;;;;;;;;25.87;55.52;95854.53;10503393;28;1929;-69
2023/06/25 10:36:51;;;;;;;;;;;;;;;26.04;55.13;95853.22;10508631;28;1931;-69
2023/06/25 10:41:54;;;;;;;;;;;;;;;26.39;52.43;95853.69;10502156;28;4661;-69
2023/06/25 10:46:56;;;;;;;;;;;;;;;26.93;51.73;95855.16;10505604;28;2305;-69
2023/06/25 10:51:59;;;;;;;;;;;;;;;26.26;52.79;95851.53;10497002;28;1963;-69
2023/06/25 10:57:02;;;;;;;;;;;;;;;27.29;50.18;95844.50;10497246;28;1985;-69
2023/06/25 11:02:04;;;;;;;;;;;;;;;26.98;49.11;95834.75;10502029;28;2103;-68
2023/06/25 11:07:07;;;;;;;;;;;;;;;26.83;47.75;95832.97;10507216;28;1890;-69
2023/06/25 11:12:10;;;;;;;;;;;;;;;27.53;46.17;95831.31;10507177;28;1931;-68
2023/06/25 11:17:12;;;;;;;;;;;;;;;26.66;47.92;95828.88;10504498;28;2039;-69
2023/06/25 11:22:15;;;;;;;;;;;;;;;27.20;46.71;95825.53;10518410;28;1944;-67
2023/06/25 11:27:17;;;;;;;;;;;;;;;27.27;45.78;95813.75;10518574;28;2139;-67
2023/06/25 11:32:20;;;;;;;;;;;;;;;26.26;46.48;95818.47;10512542;28;2060;-67
2023/06/25 11:37:22;;;;;;;;;;;;;;;25.74;48.27;95826.41;10515057;28;2083;-68
2023/06/25 11:42:25;;;;;;;;;;;;;;;25.81;49.63;95822.97;10509830;28;4642;-68
2023/06/25 11:47:27;;;;;;;;;;;;;;;25.48;50.73;95823.59;10511421;28;1928;-69
2023/06/25 11:52:30;;;;;;;;;;;;;;;25.83;51.31;95821.44;10513941;28;2104;-68
2023/06/25 11:57:32;;;;;;;;;;;;;;;25.80;51.10;95818.63;10512817;28;1902;-68
2023/06/25 12:02:35;;;;;;;;;;;;;;;25.72;50.75;95806.69;10507676;28;2067;-69
2023/06/25 12:07:51;;;;;;;;;;;;;;;25.98;51.18;95800.41;10509569;28;1989;-70
2023/06/25 12:12:54;;;;;;;;;;;;;;;26.38;53.38;95796.97;10507877;28;1927;-69
2023/06/25 12:17:57;;;;;;;;;;;;;;;26.27;53.90;95801.56;10515648;28;2085;-69
2023/06/25 12:23:00;;;;;;;;;;;;;;;26.25;52.20;95794.84;10504793;28;2038;-69
2023/06/25 12:28:03;;;;;;;;;;;;;;;25.92;54.31;95796.38;10512318;28;2043;-69
2023/06/25 12:33:06;;;;;;;;;;;;;;;25.99;52.48;95788.22;10519002;28;1888;-69
2023/06/25 12:38:08;;;;;;;;;;;;;;;25.84;53.49;95801.00;10507187;28;1907;-69
2023/06/25 12:43:11;;;;;;;;;;;;;;;26.44;49.72;95788.41;10505552;28;4667;-67
2023/06/25 12:48:13;;;;;;;;;;;;;;;26.30;49.90;95787.06;10507028;28;2010;-68
2023/06/25 12:53:16;;;;;;;;;;;;;;;26.46;50.01;95769.53;10491689;28;2104;-69
2023/06/25 12:58:19;;;;;;;;;;;;;;;27.00;48.26;95770.91;10507216;28;1894;-68
2023/06/25 13:03:21;;;;;;;;;;;;;;;26.89;47.80;95766.06;10498585;28;1935;-69
2023/06/25 13:08:24;;;;;;;;;;;;;;;26.78;47.10;95762.41;10505287;28;1824;-68
2023/06/25 13:13:26;;;;;;;;;;;;;;;27.04;46.45;95750.47;10508808;28;1963;-68
2023/06/25 13:18:28;;;;;;;;;;;;;;;26.85;46.24;95756.19;10508068;28;1899;-68
2023/06/25 13:23:31;;;;;;;;;;;;;;;26.95;46.67;95750.75;10511277;28;2723;-68
2023/06/25 13:28:33;;;;;;;;;;;;;;;26.95;47.50;95744.44;10502895;28;1989;-68
2023/06/25 13:33:36;;;;;;;;;;;;;;;27.39;45.59;95738.94;10503507;28;1933;-67
2023/06/25 13:38:40;;;;;;;;;;;;;;;26.81;44.27;95747.88;10504347;28;2206;-70
2023/06/25 13:43:43;;;;;;;;;;;;;;;27.11;43.89;95747.00;10492764;28;4429;-70
2023/06/25 13:48:46;;;;;;;;;;;;;;;27.29;43.12;95742.41;10502589;28;1854;-71
2023/06/25 13:53:51;;;;;;;;;;;;;;;27.22;43.92;95731.31;10501677;28;1906;-71
2023/06/25 13:58:53;;;;;;;;;;;;;;;27.43;45.22;95728.72;10506790;28;1968;-72
2023/06/25 14:03:55;;;;;;;;;;;;;;;27.36;43.53;95717.63;10505914;28;2030;-72
2023/06/25 14:08:58;;;;;;;;;;;;;;;27.50;43.87;95732.72;10491888;28;1839;-72
2023/06/25 14:14:00;;;;;;;;;;;;;;;27.22;43.15;95728.56;10507025;28;1910;-70
2023/06/25 14:19:03;;;;;;;;;;;;;;;27.41;43.72;95724.75;10490708;28;1793;-70
2023/06/25 14:24:05;;;;;;;;;;;;;;;27.71;43.38;95716.31;10502088;28;1938;-71
2023/06/25 14:29:08;;;;;;;;;;;;;;;27.78;42.90;95718.31;10506816;28;2197;-70
2023/06/25 14:34:13;;;;;;;;;;;;;;;27.27;43.43;95708.09;10509555;28;2050;-71
2023/06/25 14:39:15;;;;;;;;;;;;;;;27.43;42.19;95706.66;10504664;28;2004;-71
2023/06/25 14:44:18;;;;;;;;;;;;;;;27.45;41.49;95703.50;10494349;28;4683;-71
2023/06/25 14:49:21;;;;;;;;;;;;;;;27.74;41.53;95696.22;10494276;28;1943;-71
2023/06/25 14:54:23;;;;;;;;;;;;;;;27.61;40.40;95689.38;10504173;28;2174;-70
2023/06/25 14:59:26;;;;;;;;;;;;;;;27.97;39.29;95690.41;10501810;28;1887;-71
2023/06/25 15:04:28;;;;;;;;;;;;;;;27.95;40.30;95692.75;10501359;28;1971;-70
2023/06/25 15:09:31;;;;;;;;;;;;;;;28.10;39.74;95690.84;10498929;28;1893;-71
2023/06/25 15:14:33;;;;;;;;;;;;;;;27.59;39.85;95688.97;10575940;22;2440;-75
2023/06/25 15:19:36;;;;;;;;;;;;;;;27.60;39.50;95683.06;10437389;28;1983;-77
2023/06/25 15:24:39;;;;;;;;;;;;;;;27.54;39.24;95678.28;10437385;28;1963;-78
2023/06/25 15:29:41;;;;;;;;;;;;;;;27.75;37.61;95670.19;10442537;28;1912;-78
2023/06/25 15:34:44;;;;;;;;;;;;;;;27.72;38.27;95679.22;10436380;28;1874;-78
2023/06/25 15:39:46;;;;;;;;;;;;;;;27.84;37.18;95673.38;10444087;28;2040;-77
2023/06/25 15:44:49;;;;;;;;;;;;;;;27.69;37.91;95664.22;10442400;28;4898;-77
2023/06/25 15:49:52;;;;;;;;;;;;;;;27.78;37.60;95661.09;10441414;28;1907;-78
2023/06/25 15:54:54;;;;;;;;;;;;;;;27.60;38.17;95658.22;10450073;28;1878;-77
2023/06/25 15:59:57;;;;;;;;;;;;;;;27.43;38.30;95651.44;10450199;28;1957;-77
2023/06/25 16:05:00;;;;;;;;;;;;;;;27.40;38.98;95645.88;10452126;28;1910;-77
2023/06/25 16:10:02;;;;;;;;;;;;;;;27.31;39.36;95635.19;10448787;28;1947;-77
2023/06/25 16:15:05;;;;;;;;;;;;;;;27.34;39.41;95642.69;10431034;28;1923;-75
2023/06/25 16:20:07;;;;;;;;;;;;;;;27.09;39.07;95644.50;10448723;28;1876;-78
2023/06/25 16:25:14;;;;;;;;;;;;;;;26.70;39.38;95636.69;10442523;28;2385;-76
2023/06/25 16:30:16;;;;;;;;;;;;;;;26.65;39.01;95639.78;10444062;28;1890;-75
2023/06/25 16:35:18;;;;;;;;;;;;;;;26.50;39.76;95640.84;10441951;28;1972;-75
2023/06/25 16:40:21;;;;;;;;;;;;;;;26.31;39.99;95634.31;10444623;28;1838;-75
2023/06/25 16:45:24;;;;;;;;;;;;;;;26.16;40.37;95642.84;10444650;28;4584;-76
2023/06/25 16:50:26;;;;;;;;;;;;;;;26.08;39.99;95640.00;10447191;28;1882;-76
2023/06/25 16:55:29;;;;;;;;;;;;;;;26.07;40.47;95634.84;10447592;28;1861;-75
2023/06/25 17:00:31;;;;;;;;;;;;;;;25.94;40.49;95639.81;10447419;28;1971;-76
2023/06/25 17:05:34;;;;;;;;;;;;;;;25.92;39.96;95644.13;10440452;28;1922;-75
2023/06/25 17:10:38;;;;;;;;;;;;;;;25.71;39.75;95650.16;10436775;28;1927;-75
2023/06/25 17:15:40;;;;;;;;;;;;;;;25.52;40.03;95646.38;10440518;28;1907;-77
2023/06/25 17:20:43;;;;;;;;;;;;;;;25.54;39.86;95654.25;10435086;28;2008;-75
2023/06/25 17:25:45;;;;;;;;;;;;;;;25.48;40.51;95644.72;10439950;28;1914;-75
2023/06/25 17:30:47;;;;;;;;;;;;;;;25.34;40.86;95650.81;10439398;28;2351;-75
2023/06/25 17:35:50;;;;;;;;;;;;;;;25.39;40.62;95652.47;10446127;28;1955;-76
2023/06/25 17:40:53;;;;;;;;;;;;;;;25.30;40.76;95650.75;10439802;28;1891;-74
2023/06/25 17:45:55;;;;;;;;;;;;;;;25.17;41.83;95652.13;10449538;28;4956;-73
2023/06/25 17:50:59;;;;;;;;;;;;;;;25.13;41.07;95651.31;10443234;28;1988;-73
2023/06/25 17:56:02;;;;;;;;;;;;;;;25.07;40.90;95650.03;10439063;28;2007;-73
2023/06/25 18:01:04;;;;;;;;;;;;;;;24.92;41.19;95648.97;10422925;28;1844;-73
2023/06/25 18:06:07;;;;;;;;;;;;;;;24.89;43.54;95657.19;10441924;28;1929;-74
2023/06/25 18:11:10;;;;;;;;;;;;;;;24.75;45.36;95655.78;10442203;28;2170;-72
2023/06/25 18:16:12;;;;;;;;;;;;;;;24.65;46.50;95653.66;10443063;28;2473;-74
2023/06/25 18:21:14;;;;;;;;;;;;;;;24.58;58.56;95656.28;10439939;28;1938;-82
2023/06/25 18:26:17;;;;;;;;;;;;;;;24.48;51.71;95654.13;10450930;28;1977;-79
2023/06/25 18:31:19;;;;;;;;;;;;;;;24.44;51.61;95656.03;10442947;28;1864;-78
2023/06/25 18:36:22;;;;;;;;;;;;;;;24.28;52.94;95654.16;10444569;28;1892;-77
2023/06/25 18:41:24;;;;;;;;;;;;;;;24.15;54.32;95660.16;10438861;28;5022;-77
2023/06/25 18:46:28;;;;;;;;;;;;;;;23.95;56.28;95653.91;10443044;28;1936;-78
2023/06/25 18:51:31;;;;;;;;;;;;;;;23.82;58.33;95655.22;10445373;28;1941;-77
2023/06/25 18:56:34;;;;;;;;;;;;;;;23.69;59.70;95649.88;10436756;28;1829;-77
2023/06/25 19:01:36;;;;;;;;;;;;;;;23.58;61.31;95651.56;10438664;28;1927;-78
2023/06/25 19:06:39;;;;;;;;;;;;;;;23.40;63.15;95655.88;10441002;28;2085;-78
2023/06/25 19:11:42;;;;;;;;;;;;;;;23.23;63.76;95664.53;10448621;28;2383;-79
2023/06/25 19:16:45;;;;;;;;;;;;;;;23.12;64.71;95662.31;10442952;28;1987;-79
2023/06/25 19:21:49;;;;;;;;;;;;;;;22.90;66.61;95657.47;10440015;28;1957;-77
2023/06/25 19:26:51;;;;;;;;;;;;;;;22.74;68.28;95668.44;10418681;28;1992;-77
2023/06/25 19:31:54;;;;;;;;;;;;;;;22.64;69.13;95669.72;10437305;28;2090;-79
2023/06/25 19:36:57;;;;;;;;;;;;;;;22.48;70.49;95668.16;10442689;28;1571;-79
2023/06/25 19:41:59;;;;;;;;;;;;;;;22.28;73.18;95675.47;10448899;28;4890;-79
2023/06/25 19:47:02;;;;;;;;;;;;;;;22.16;75.09;95675.53;10450175;28;1914;-80
2023/06/25 19:52:04;;;;;;;;;;;;;;;21.96;77.55;95678.09;10450587;28;1374;-78
2023/06/25 19:57:07;;;;;;;;;;;;;;;21.80;77.99;95685.44;10450672;28;1409;-76
2023/06/25 20:02:09;;;;;;;;;;;;;;;21.70;79.11;95688.69;10450338;28;1564;-76
2023/06/25 20:07:11;;;;;;;;;;;;;;;21.61;80.65;95688.81;10435842;28;1910;-77
2023/06/25 20:12:14;;;;;;;;;;;;;;;21.59;81.64;95697.38;10446246;28;1600;-76
2023/06/25 20:17:17;;;;;;;;;;;;;;;21.42;83.84;95697.63;10449418;28;1820;-77
2023/06/25 20:22:20;;;;;;;;;;;;;;;21.37;85.33;95697.84;10447129;28;1459;-77
2023/06/25 20:27:23;;;;;;;;;;;;;;;21.26;87.97;95688.53;10448408;28;1985;-77
2023/06/25 20:32:26;;;;;;;;;;;;;;;21.23;89.14;95700.13;10446462;28;1455;-78
2023/06/25 20:37:28;;;;;;;;;;;;;;;21.23;90.55;95700.13;10442931;28;1898;-78
2023/06/25 20:42:31;;;;;;;;;;;;;;;21.22;91.05;95698.53;10449323;28;4699;-77
2023/06/25 20:47:33;;;;;;;;;;;;;;;21.22;89.89;95693.06;10452074;28;1996;-78
2023/06/25 20:52:35;;;;;;;;;;;;;;;21.02;92.90;95701.06;10442266;28;1496;-80
2023/06/25 20:57:38;;;;;;;;;;;;;;;21.05;92.61;95703.09;10428545;28;1518;-81
2023/06/25 21:02:40;;;;;;;;;;;;;;;21.10;93.47;95702.06;10431429;28;2294;-79
2023/06/25 21:07:43;;;;;;;;;;;;;;;21.13;95.38;95706.09;10446166;28;1988;-75
2023/06/25 21:12:45;;;;;;;;;;;;;;;21.11;96.15;95708.34;10445022;28;1893;-75
2023/06/25 21:17:47;;;;;;;;;;;;;;;21.10;96.99;95709.47;10445371;28;1856;-75
2023/06/25 21:22:50;;;;;;;;;;;;;;;21.16;96.73;95711.66;10444327;28;1931;-75
2023/06/25 21:27:53;;;;;;;;;;;;;;;21.09;96.69;95713.38;10446495;28;1981;-75
2023/06/25 21:32:56;;;;;;;;;;;;;;;21.27;97.52;95712.78;10430893;28;1824;-76
2023/06/25 21:37:58;;;;;;;;;;;;;;;21.54;96.11;95711.28;10446586;28;1880;-75
2023/06/25 21:43:01;;;;;;;;;;;;;;;21.59;95.27;95708.31;10445416;28;4734;-75
2023/06/25 21:48:03;;;;;;;;;;;;;;;21.83;93.25;95712.13;10441702;28;1910;-75
2023/06/25 21:53:10;;;;;;;;;;;;;;;21.64;93.65;95720.16;10440316;28;1860;-75
2023/06/25 21:58:13;;;;;;;;;;;;;;;21.22;95.67;95717.69;10427277;28;1896;-75
2023/06/25 22:03:16;;;;;;;;;;;;;;;21.05;95.80;95713.22;10445419;28;2410;-75
2023/06/25 22:08:18;;;;;;;;;;;;;;;20.73;97.46;95725.84;10441951;28;1910;-75
2023/06/25 22:13:22;;;;;;;;;;;;;;;20.88;96.74;95714.28;10440066;28;1888;-75
2023/06/25 22:18:25;;;;;;;;;;;;;;;21.37;94.98;95716.19;10438444;28;1908;-75
2023/06/25 22:23:27;;;;;;;;;;;;;;;21.08;95.36;95718.03;10448620;28;1874;-75
2023/06/25 22:28:29;;;;;;;;;;;;;;;20.97;95.62;95720.41;10445928;28;1938;-76
2023/06/25 22:33:32;;;;;;;;;;;;;;;21.01;96.54;95720.53;10441356;28;1935;-76
2023/06/25 22:38:35;;;;;;;;;;;;;;;20.91;97.35;95716.31;10442529;28;1844;-76
2023/06/25 22:43:38;;;;;;;;;;;;;;;20.93;97.25;95718.69;10441678;28;4738;-76
2023/06/25 22:48:43;;;;;;;;;;;;;;;21.03;97.19;95718.25;10433517;28;1980;-75
2023/06/25 22:53:46;;;;;;;;;;;;;;;20.82;98.32;95720.31;10448263;28;1972;-74
2023/06/25 22:58:51;;;;;;;;;;;;;;;20.75;98.82;95712.66;10446607;28;2218;-75
2023/06/25 23:03:53;;;;;;;;;;;;;;;20.67;99.06;95710.81;10442020;28;1968;-75
2023/06/25 23:08:56;;;;;;;;;;;;;;;20.63;99.61;95709.91;10446310;28;1983;-76
2023/06/25 23:13:58;;;;;;;;;;;;;;;20.58;100.00;95707.41;10451496;28;1806;-74
2023/06/25 23:19:02;;;;;;;;;;;;;;;20.92;98.47;95700.72;10446759;28;1866;-75
2023/06/25 23:24:05;;;;;;;;;;;;;;;20.59;99.86;95706.25;10452087;28;1927;-74
2023/06/25 23:29:07;;;;;;;;;;;;;;;20.79;99.20;95697.97;10453334;28;1968;-74
2023/06/25 23:34:10;;;;;;;;;;;;;;;20.59;100.00;95701.59;10452010;28;1911;-74
2023/06/25 23:39:13;;;;;;;;;;;;;;;20.52;99.87;95701.38;10456013;28;1916;-76
2023/06/25 23:44:15;;;;;;;;;;;;;;;20.65;99.95;95694.78;10450419;28;4785;-76
2023/06/25 23:49:18;;;;;;;;;;;;;;;20.54;99.67;95695.56;10454335;28;1926;-73
2023/06/25 23:54:20;;;;;;;;;;;;;;;20.28;100.00;95698.53;10443114;28;2263;-74
2023/06/25 23:59:23;;;;;;;;;;;;;;;20.23;100.00;95691.34;10448790;28;1882;-74
